createdAt,value
2023-02-16T00:04:48.016Z,-1.74
2023-02-16T00:09:50.121Z,-1.80
2023-02-16T00:14:52.402Z,-1.82
2023-02-16T00:19:55.995Z,-1.64
2023-02-16T00:24:58.175Z,-1.54
2023-02-16T00:30:00.905Z,-1.69
2023-02-16T00:35:05.792Z,-1.74
2023-02-16T00:40:08.702Z,-1.62
2023-02-16T00:45:15.848Z,-1.61
2023-02-16T00:50:22.720Z,-1.68
2023-02-16T00:55:28.482Z,-1.88
2023-02-16T01:00:34.838Z,-1.88
2023-02-16T01:05:38.697Z,-1.73
2023-02-16T01:10:40.689Z,-1.81
2023-02-16T01:15:43.629Z,-1.81
2023-02-16T01:20:47.600Z,-1.90
2023-02-16T01:25:49.765Z,-1.90
2023-02-16T01:30:53.584Z,-1.96
2023-02-16T01:35:58.017Z,-2.00
2023-02-16T01:41:12.684Z,-1.90
2023-02-16T01:46:19.870Z,-1.97
2023-02-16T01:51:27.722Z,-2.07
2023-02-16T01:56:34.312Z,-2.03
2023-02-16T02:01:46.930Z,-2.09
2023-02-16T02:06:50.970Z,-2.17
2023-02-16T02:12:00.807Z,-2.08
2023-02-16T02:17:06.390Z,-2.11
2023-02-16T02:22:34.502Z,-1.99
2023-02-16T02:27:41.178Z,-2.04
2023-02-16T02:33:02.520Z,-2.02
2023-02-16T02:38:13.136Z,-2.13
2023-02-16T02:43:21.029Z,-2.15
2023-02-16T02:48:23.162Z,-2.13
2023-02-16T02:53:25.225Z,-2.11
2023-02-16T02:58:34.526Z,-2.03
2023-02-16T03:03:41.452Z,-2.06
2023-02-16T03:08:48.422Z,-2.09
2023-02-16T03:13:56.375Z,-2.09
2023-02-16T03:18:59.316Z,-2.08
2023-02-16T03:24:05.930Z,-2.09
2023-02-16T03:29:10.009Z,-2.12
2023-02-16T03:34:13.133Z,-2.11
2023-02-16T03:39:16.502Z,-2.23
2023-02-16T03:44:20.304Z,-2.25
2023-02-16T03:49:22.062Z,-2.24
2023-02-16T03:54:24.087Z,-2.21
2023-02-16T03:59:27.872Z,-2.17
2023-02-16T04:04:30.388Z,-2.14
2023-02-16T04:09:32.678Z,-2.08
2023-02-16T04:14:36.462Z,-2.09
2023-02-16T04:19:38.498Z,-1.98
2023-02-16T04:24:40.726Z,-2.02
2023-02-16T04:29:44.507Z,-2.12
2023-02-16T04:34:46.908Z,-2.05
2023-02-16T04:39:49.047Z,-2.09
2023-02-16T04:44:52.662Z,-2.07
2023-02-16T04:49:54.758Z,-1.87
2023-02-16T04:54:56.919Z,-1.79
2023-02-16T05:00:00.807Z,-1.78
2023-02-16T05:05:03.029Z,-1.74
2023-02-16T05:10:07.204Z,-1.84
2023-02-16T05:15:10.616Z,-1.82
2023-02-16T05:20:13.713Z,-1.86
2023-02-16T05:25:16.063Z,-1.81
2023-02-16T05:30:19.930Z,-1.79
2023-02-16T05:35:22.353Z,-1.81
2023-02-16T05:40:24.126Z,-1.90
2023-02-16T05:45:27.870Z,-1.97
2023-02-16T05:50:30.172Z,-2.01
2023-02-16T05:55:32.354Z,-2.02
2023-02-16T06:00:35.723Z,-2.07
2023-02-16T06:05:38.030Z,-2.11
2023-02-16T06:10:40.489Z,-2.14
2023-02-16T06:15:44.355Z,-2.07
2023-02-16T06:20:46.198Z,-2.05
2023-02-16T06:25:51.117Z,-2.05
2023-02-16T06:30:54.714Z,-1.91
2023-02-16T06:35:56.931Z,-1.80
2023-02-16T06:40:59.205Z,-1.56
2023-02-16T06:46:02.561Z,-1.59
2023-02-16T06:51:05.646Z,-1.47
2023-02-16T06:56:08.227Z,-1.27
2023-02-16T07:01:12.048Z,-1.09
2023-02-16T07:06:14.824Z,-0.74
2023-02-16T07:11:18.013Z,-0.47
2023-02-16T07:16:21.553Z,-0.18
2023-02-16T07:21:23.645Z,-0.08
2023-02-16T07:26:25.460Z,-0.04
2023-02-16T07:31:28.740Z,0.12
2023-02-16T07:36:30.724Z,0.19
2023-02-16T07:41:32.507Z,0.46
2023-02-16T07:46:36.195Z,0.70
2023-02-16T07:51:38.027Z,0.95
2023-02-16T07:56:40.094Z,1.11
2023-02-16T08:01:43.279Z,1.27
2023-02-16T08:06:45.086Z,1.36
2023-02-16T08:11:47.107Z,1.51
2023-02-16T08:16:53.562Z,1.45
2023-02-16T08:21:57.753Z,1.64
2023-02-16T08:27:00.201Z,1.68
2023-02-16T08:32:03.946Z,1.89
2023-02-16T08:37:06.204Z,2.11
2023-02-16T08:42:11.123Z,2.35
2023-02-16T08:47:14.303Z,2.65
2023-02-16T08:52:16.447Z,2.95
2023-02-16T08:57:18.914Z,3.25
2023-02-16T09:02:23.339Z,3.68
2023-02-16T09:07:25.400Z,3.95
2023-02-16T09:12:27.848Z,4.21
2023-02-16T09:17:31.041Z,4.52
2023-02-16T09:22:33.275Z,4.87
2023-02-16T09:27:35.472Z,5.16
2023-02-16T09:32:38.715Z,5.59
2023-02-16T09:37:40.879Z,5.87
2023-02-16T09:42:56.943Z,6.27
2023-02-16T09:48:00.499Z,6.72
2023-02-16T09:53:08.800Z,7.00
2023-02-16T09:58:16.988Z,7.50
2023-02-16T10:03:35.745Z,7.95
2023-02-16T10:08:41.329Z,7.88
2023-02-16T10:13:51.226Z,8.16
2023-02-16T10:18:59.939Z,8.56
2023-02-16T10:24:05.100Z,8.69
2023-02-16T10:29:08.984Z,9.10
2023-02-16T10:34:21.972Z,12.29
2023-02-16T10:39:32.310Z,14.31
2023-02-16T10:44:38.516Z,15.19
2023-02-16T10:49:41.913Z,15.12
2023-02-16T10:54:43.925Z,16.48
2023-02-16T10:59:47.124Z,15.73
2023-02-16T11:04:51.880Z,15.68
2023-02-16T11:09:55.763Z,16.49
2023-02-16T11:15:02.212Z,15.98
2023-02-16T11:20:08.301Z,16.37
2023-02-16T11:25:24.446Z,15.27
2023-02-16T11:30:33.508Z,16.27
2023-02-16T11:35:42.618Z,16.87
2023-02-16T11:40:52.331Z,16.03
2023-02-16T11:45:59.534Z,13.91
2023-02-16T11:51:05.959Z,13.40
2023-02-16T11:56:22.444Z,12.80
2023-02-16T12:01:36.299Z,12.56
2023-02-16T12:06:52.247Z,12.28
2023-02-16T12:12:03.808Z,12.43
2023-02-16T12:17:19.247Z,12.30
2023-02-16T12:22:34.606Z,12.22
2023-02-16T12:27:46.605Z,12.39
2023-02-16T12:32:58.601Z,12.65
2023-02-16T12:38:07.944Z,12.54
2023-02-16T12:43:30.265Z,12.99
2023-02-16T12:48:39.508Z,12.98
2023-02-16T12:53:48.602Z,13.38
2023-02-16T12:59:04.288Z,13.53
2023-02-16T13:04:18.164Z,13.54
2023-02-16T13:09:32.205Z,13.36
2023-02-16T13:14:38.561Z,13.62
2023-02-16T13:19:42.058Z,14.25
2023-02-16T13:24:56.058Z,14.41
2023-02-16T13:30:31.439Z,14.09
2023-02-16T13:36:04.586Z,14.16
2023-02-16T13:41:49.931Z,14.30
2023-02-16T13:46:53.964Z,14.23
2023-02-16T13:51:56.055Z,13.74
2023-02-16T13:57:00.340Z,13.58
2023-02-16T14:02:03.900Z,13.67
2023-02-16T14:07:31.354Z,13.51
2023-02-16T14:12:39.668Z,13.29
2023-02-16T14:17:41.409Z,13.17
2023-02-16T14:22:51.027Z,13.06
2023-02-16T14:27:57.486Z,13.16
2023-02-16T14:33:05.223Z,12.95
2023-02-16T14:38:17.779Z,13.16
2023-02-16T14:43:32.039Z,12.83
2023-02-16T14:49:18.841Z,12.87
2023-02-16T14:55:02.125Z,12.87
2023-02-16T15:00:14.703Z,13.07
2023-02-16T15:05:19.665Z,12.82
2023-02-16T15:10:27.540Z,12.60
2023-02-16T15:15:43.685Z,12.37
2023-02-16T15:20:49.179Z,12.21
2023-02-16T15:25:55.934Z,12.13
2023-02-16T15:31:03.059Z,11.95
2023-02-16T15:36:07.765Z,11.81
2023-02-16T15:41:14.518Z,11.73
2023-02-16T15:46:24.691Z,11.63
2023-02-16T15:51:29.278Z,11.53
2023-02-16T15:56:38.499Z,11.30
2023-02-16T16:01:44.127Z,11.01
2023-02-16T16:06:49.983Z,10.69
2023-02-16T16:11:54.991Z,10.44
2023-02-16T16:16:58.863Z,10.20
2023-02-16T16:22:02.190Z,9.94
2023-02-16T16:27:08.982Z,9.63
2023-02-16T16:32:19.907Z,9.45
2023-02-16T16:37:26.714Z,9.24
2023-02-16T16:42:29.205Z,9.06
2023-02-16T16:47:36.567Z,8.96
2023-02-16T16:52:41.880Z,8.93
2023-02-16T16:57:44.223Z,8.82
2023-02-16T17:02:47.686Z,8.73
2023-02-16T17:07:49.813Z,8.70
2023-02-16T17:12:53.677Z,8.70
2023-02-16T17:17:58.344Z,8.70
2023-02-16T17:23:00.754Z,8.70
2023-02-16T17:28:04.777Z,8.72
2023-02-16T17:33:09.042Z,8.77
2023-02-16T17:38:12.964Z,8.75
2023-02-16T17:43:15.759Z,8.77
2023-02-16T17:48:21.188Z,8.87
2023-02-16T17:53:28.731Z,8.93
2023-02-16T17:58:30.822Z,8.94
2023-02-16T18:03:34.422Z,8.99
2023-02-16T18:08:37.619Z,8.94
2023-02-16T18:13:41.601Z,8.88
2023-02-16T18:18:45.672Z,8.86
2023-02-16T18:23:48.013Z,8.83
2023-02-16T18:28:49.981Z,8.80
2023-02-16T18:33:53.142Z,8.76
2023-02-16T18:38:55.368Z,8.68
2023-02-16T18:43:57.156Z,8.68
2023-02-16T18:49:00.821Z,8.64
2023-02-16T18:54:02.700Z,8.57
2023-02-16T18:59:04.503Z,8.55
2023-02-16T19:04:07.800Z,8.51
2023-02-16T19:09:10.148Z,8.54
2023-02-16T19:14:12.035Z,8.51
2023-02-16T19:19:15.507Z,8.48
2023-02-16T19:24:17.682Z,8.41
2023-02-16T19:29:20.051Z,8.42
2023-02-16T19:34:23.361Z,8.38
2023-02-16T19:39:25.938Z,8.35
2023-02-16T19:44:28.736Z,8.29
2023-02-16T19:49:32.424Z,8.26
2023-02-16T19:54:35.416Z,8.24
2023-02-16T19:59:37.451Z,8.27
2023-02-16T20:04:41.180Z,8.26
2023-02-16T20:09:43.115Z,8.26
2023-02-16T20:14:45.450Z,8.25
2023-02-16T20:19:49.860Z,8.24
2023-02-16T20:24:51.815Z,8.21
2023-02-16T20:29:53.944Z,8.23
2023-02-16T20:34:57.265Z,8.27
2023-02-16T20:39:59.326Z,8.21
2023-02-16T20:45:01.310Z,8.11
2023-02-16T20:50:05.474Z,8.17
2023-02-16T20:55:08.981Z,8.18
2023-02-16T21:00:15.547Z,8.21
2023-02-16T21:05:20.147Z,8.11
2023-02-16T21:10:22.464Z,7.97
2023-02-16T21:15:24.338Z,7.84
2023-02-16T21:20:27.563Z,7.79
2023-02-16T21:25:29.975Z,7.74
2023-02-16T21:30:34.802Z,7.72
2023-02-16T21:35:37.971Z,7.69
2023-02-16T21:40:40.186Z,7.77
2023-02-16T21:45:42.101Z,7.77
2023-02-16T21:50:45.396Z,7.84
2023-02-16T21:55:47.179Z,7.86
2023-02-16T22:00:50.220Z,7.84
2023-02-16T22:05:53.402Z,7.87
2023-02-16T22:10:55.222Z,7.83
2023-02-16T22:15:57.089Z,7.82
2023-02-16T22:21:03.338Z,7.82
2023-02-16T22:26:07.092Z,7.82
2023-02-16T22:31:09.395Z,7.76
2023-02-16T22:36:14.061Z,7.69
2023-02-16T22:41:16.530Z,7.67
2023-02-16T22:46:18.467Z,7.65
2023-02-16T22:51:22.042Z,7.58
2023-02-16T22:56:23.780Z,7.58
2023-02-16T23:01:27.580Z,7.59
2023-02-16T23:06:33.168Z,7.63
2023-02-16T23:11:35.674Z,7.62
2023-02-16T23:16:37.925Z,7.62
2023-02-16T23:21:42.294Z,7.64
2023-02-16T23:26:44.773Z,7.66
2023-02-16T23:31:47.391Z,7.66
2023-02-16T23:36:50.953Z,7.66
2023-02-16T23:41:52.714Z,7.68
2023-02-16T23:46:54.926Z,7.68
2023-02-16T23:51:58.795Z,7.68
2023-02-16T23:57:00.557Z,7.71
